This is the latest recevied weather packets stored in our database for station/object OE9GTV. If no packets are shown the sender has not sent any weather packets the latest 10 day(s).
| Time | Temp. | Humidity | Pressure | Rain* | Wind** | Luminosity | Snow |
|---|---|---|---|---|---|---|---|
| 1777265470 | 7.78° C | 76% | 1018.4 hPa | 0 mm | - | 0 W/m² | - |
| 1777264870 | 7.78° C | 76% | 1018.4 hPa | 0 mm | - | 0 W/m² | - |
| 1777264270 | 7.78° C | 76% | 1018.3 hPa | 0 mm | - | 0 W/m² | - |
| 1777263670 | 7.78° C | 76% | 1018.2 hPa | 0 mm | - | 0 W/m² | - |
| 1777263070 | 7.78° C | 76% | 1018.2 hPa | 0 mm | - | 0 W/m² | - |
| 1777262470 | 7.78° C | 76% | 1018.2 hPa | 0 mm | - | 0 W/m² | - |
| 1777261870 | 7.22° C | 75% | 1018.2 hPa | 0 mm | - | 0 W/m² | - |
| 1777261270 | 7.22° C | 74% | 1018.3 hPa | 0 mm | - | 0 W/m² | - |
| 1777260670 | 7.22° C | 74% | 1018.3 hPa | 0 mm | - | 0 W/m² | - |
| 1777260069 | 7.22° C | 73% | 1018.3 hPa | 0 mm | - | 0 W/m² | - |
| 1777259469 | 7.22° C | 72% | 1018.4 hPa | 0 mm | - | 0 W/m² | - |
| 1777258870 | 7.22° C | 71% | 1018.3 hPa | 0 mm | - | 0 W/m² | - |
| 1777258270 | 7.22° C | 71% | 1018.3 hPa | 0 mm | - | 0 W/m² | - |
| 1777257069 | 7.78° C | 69% | 1018.3 hPa | 0 mm | - | 0 W/m² | - |
| 1777255875 | 8.33° C | 68% | 1018.3 hPa | 0 mm | - | 0 W/m² | - |
| 1777231872 | 13.89° C | 49% | 1017.6 hPa | 0 mm | - | 0 W/m² | - |
| 1777231272 | 14.44° C | 48% | 1017.5 hPa | 0 mm | - | 0 W/m² | - |
| 1777230672 | 15° C | 46% | 1017.4 hPa | 0 mm | - | 0 W/m² | - |
| 1777224671 | 20.56° C | 30% | 1016.5 hPa | 0 mm | - | 0 W/m² | - |
| 1777222871 | 21.67° C | 29% | 1016.3 hPa | 0 mm | - | 0 W/m² | - |
| 1777221071 | 21.67° C | 30% | 1016.4 hPa | 0 mm | - | 0 W/m² | - |
| 1777219871 | 21.67° C | 30% | 1016.5 hPa | 0 mm | - | 0 W/m² | - |
| 1777219276 | 21.11° C | 31% | 1016.5 hPa | 0 mm | - | 0 W/m² | - |
| 1777218076 | 21.11° C | 31% | 1016.4 hPa | 0 mm | - | 0 W/m² | - |
| 1777217476 | 21.67° C | 30% | 1016.5 hPa | 0 mm | - | 0 W/m² | - |
* Rain latest hour (hover to see other rain measurements)
** Current wind speed in m/s (hover to see current wind gust speed)